createdAt,value
2023-01-22T00:01:38.317Z,16.35
2023-01-22T00:04:04.561Z,16.08
2023-01-22T00:06:30.702Z,15.23
2023-01-22T00:08:56.828Z,17.50
2023-01-22T00:11:22.928Z,18.33
2023-01-22T00:13:49.051Z,17.85
2023-01-22T00:16:15.221Z,17.58
2023-01-22T00:18:41.429Z,16.73
2023-01-22T00:21:07.540Z,16.58
2023-01-22T00:23:33.681Z,15.82
2023-01-22T00:25:59.859Z,17.33
2023-01-22T00:28:25.981Z,20.83
2023-01-22T00:30:52.194Z,19.60
2023-01-22T00:33:18.423Z,13.98
2023-01-22T00:35:44.526Z,15.77
2023-01-22T00:38:10.650Z,18.42
2023-01-22T00:40:36.750Z,21.40
2023-01-22T00:43:02.873Z,15.93
2023-01-22T00:45:29.024Z,19.45
2023-01-22T00:47:55.152Z,17.45
2023-01-22T00:50:21.293Z,20.02
2023-01-22T00:52:47.449Z,14.95
2023-01-22T00:55:13.656Z,21.58
2023-01-22T00:57:39.791Z,18.40
2023-01-22T01:00:05.945Z,15.65
2023-01-22T01:02:32.087Z,16.65
2023-01-22T01:04:58.211Z,16.80
2023-01-22T01:07:24.327Z,17.45
2023-01-22T01:09:50.503Z,16.70
2023-01-22T01:12:16.656Z,19.63
2023-01-22T01:14:42.782Z,18.67
2023-01-22T01:17:08.876Z,16.70
2023-01-22T01:19:35.012Z,18.30
2023-01-22T01:22:01.122Z,18.75
2023-01-22T01:24:27.253Z,20.55
2023-01-22T01:26:53.359Z,17.98
2023-01-22T01:29:19.495Z,17.65
2023-01-22T01:31:45.780Z,15.88
2023-01-22T01:34:11.960Z,19.25
2023-01-22T01:36:48.689Z,17.92
2023-01-22T01:39:15.606Z,15.13
2023-01-22T01:41:41.781Z,15.00
2023-01-22T01:44:07.929Z,16.65
2023-01-22T01:46:34.151Z,17.00
2023-01-22T01:49:00.290Z,16.00
2023-01-22T01:51:26.414Z,19.58
2023-01-22T01:53:52.542Z,18.15
2023-01-22T01:56:18.677Z,17.17
2023-01-22T01:58:44.799Z,22.40
2023-01-22T02:01:10.960Z,18.65
2023-01-22T02:03:37.103Z,17.67
2023-01-22T02:06:03.235Z,20.80
2023-01-22T02:08:29.369Z,17.65
2023-01-22T02:10:55.510Z,18.45
2023-01-22T02:13:21.662Z,18.73
2023-01-22T02:15:47.783Z,18.55
2023-01-22T02:18:13.915Z,18.30
2023-01-22T02:20:40.031Z,20.13
2023-01-22T02:23:06.166Z,16.88
2023-01-22T02:25:32.332Z,20.08
2023-01-22T02:27:58.576Z,18.30
2023-01-22T02:30:24.698Z,18.17
2023-01-22T02:32:50.816Z,19.77
2023-01-22T02:35:16.923Z,21.00
2023-01-22T02:37:43.127Z,19.08
2023-01-22T02:40:09.248Z,22.20
2023-01-22T02:42:35.393Z,19.85
2023-01-22T02:45:01.508Z,20.35
2023-01-22T02:47:27.651Z,16.67
2023-01-22T02:49:53.804Z,21.55
2023-01-22T02:52:19.949Z,19.98
2023-01-22T02:54:46.081Z,21.85
2023-01-22T02:57:12.270Z,20.13
2023-01-22T02:59:38.410Z,20.17
2023-01-22T03:02:04.551Z,22.20
2023-01-22T03:04:30.732Z,21.25
2023-01-22T03:06:56.831Z,20.75
2023-01-22T03:09:22.992Z,23.88
2023-01-22T03:11:49.113Z,18.17
2023-01-22T03:14:15.247Z,20.63
2023-01-22T03:16:41.411Z,23.27
2023-01-22T03:19:07.623Z,19.05
2023-01-22T03:21:33.750Z,20.67
2023-01-22T03:23:59.956Z,21.35
2023-01-22T03:26:26.066Z,21.30
2023-01-22T03:28:52.192Z,20.33
2023-01-22T03:31:18.398Z,22.33
2023-01-22T03:33:44.588Z,18.55
2023-01-22T03:36:10.727Z,21.60
2023-01-22T03:38:36.857Z,23.38
2023-01-22T03:41:02.995Z,20.67
2023-01-22T03:43:29.100Z,20.83
2023-01-22T03:45:55.313Z,22.00
2023-01-22T03:48:21.465Z,19.17
2023-01-22T03:50:47.636Z,17.77
2023-01-22T03:53:13.803Z,20.10
2023-01-22T03:55:39.985Z,22.00
2023-01-22T03:58:06.173Z,21.38
2023-01-22T04:00:32.944Z,19.85
2023-01-22T04:02:59.130Z,18.95
2023-01-22T04:05:25.277Z,19.88
2023-01-22T04:07:51.424Z,21.52
2023-01-22T04:10:17.866Z,22.77
2023-01-22T04:12:44.192Z,18.52
2023-01-22T04:15:10.316Z,21.98
2023-01-22T04:17:36.430Z,19.83
2023-01-22T04:20:02.565Z,22.10
2023-01-22T04:22:28.675Z,19.58
2023-01-22T04:24:54.809Z,20.77
2023-01-22T04:27:20.925Z,22.35
2023-01-22T04:29:47.045Z,20.13
2023-01-22T04:32:13.160Z,18.98
2023-01-22T04:34:39.268Z,21.77
2023-01-22T04:37:05.416Z,22.33
2023-01-22T04:39:31.572Z,22.73
2023-01-22T04:41:57.757Z,25.50
2023-01-22T04:44:23.937Z,23.23
2023-01-22T04:46:50.110Z,23.17
2023-01-22T04:49:16.221Z,20.42
2023-01-22T04:51:42.369Z,21.40
2023-01-22T04:54:08.489Z,23.70
2023-01-22T04:56:34.644Z,22.42
2023-01-22T04:59:00.755Z,21.45
2023-01-22T05:01:26.934Z,20.27
2023-01-22T05:03:53.060Z,22.33
2023-01-22T05:06:19.247Z,23.58
2023-01-22T05:08:45.379Z,21.83
2023-01-22T05:11:11.574Z,22.38
2023-01-22T05:13:37.694Z,20.42
2023-01-22T05:16:03.895Z,22.73
2023-01-22T05:18:30.062Z,22.92
2023-01-22T05:20:56.172Z,19.58
2023-01-22T05:23:22.451Z,18.52
2023-01-22T05:25:48.562Z,17.00
2023-01-22T05:28:14.725Z,13.65
2023-01-22T05:30:40.993Z,15.77
2023-01-22T05:33:09.152Z,16.13
2023-01-22T05:35:36.530Z,15.70
2023-01-22T05:38:02.655Z,18.15
2023-01-22T05:40:28.791Z,16.27
2023-01-22T05:42:54.929Z,17.33
2023-01-22T05:45:21.062Z,16.23
2023-01-22T05:47:47.190Z,15.85
2023-01-22T05:50:13.362Z,17.00
2023-01-22T05:52:39.495Z,17.33
2023-01-22T05:55:05.622Z,18.38
2023-01-22T05:57:31.778Z,16.65
2023-01-22T05:59:57.942Z,20.98
2023-01-22T06:02:24.107Z,15.85
2023-01-22T06:04:50.235Z,14.70
2023-01-22T06:07:16.339Z,16.10
2023-01-22T06:09:42.527Z,17.13
2023-01-22T06:12:08.643Z,17.30
2023-01-22T06:14:34.822Z,15.38
2023-01-22T06:17:00.937Z,16.75
2023-01-22T06:19:27.092Z,16.83
2023-01-22T06:21:53.197Z,14.60
2023-01-22T06:24:19.330Z,17.20
2023-01-22T06:26:45.452Z,16.85
2023-01-22T06:29:11.589Z,18.42
2023-01-22T06:31:37.735Z,21.35
2023-01-22T06:34:03.886Z,20.98
2023-01-22T06:36:29.988Z,18.25
2023-01-22T06:38:56.122Z,21.15
2023-01-22T06:41:22.234Z,19.80
2023-01-22T06:43:48.381Z,18.83
2023-01-22T06:46:14.522Z,18.35
2023-01-22T06:48:40.700Z,16.90
2023-01-22T06:51:06.834Z,22.73
2023-01-22T06:53:32.960Z,16.35
2023-01-22T06:55:59.089Z,21.98
2023-01-22T06:58:25.220Z,17.02
2023-01-22T07:00:51.395Z,16.85
2023-01-22T07:03:17.614Z,16.75
2023-01-22T07:05:43.743Z,19.88
2023-01-22T07:08:09.864Z,19.27
2023-01-22T07:10:36.000Z,21.65
2023-01-22T07:13:02.116Z,19.63
2023-01-22T07:15:28.280Z,21.00
2023-01-22T07:17:54.488Z,22.85
2023-01-22T07:20:20.727Z,22.63
2023-01-22T07:22:46.856Z,20.95
2023-01-22T07:25:12.989Z,19.85
2023-01-22T07:27:39.113Z,21.83
2023-01-22T07:30:05.253Z,19.20
2023-01-22T07:32:31.376Z,22.67
2023-01-22T07:34:57.510Z,23.10
2023-01-22T07:37:23.620Z,21.10
2023-01-22T07:39:49.743Z,21.05
2023-01-22T07:42:15.854Z,23.17
2023-01-22T07:44:41.981Z,18.63
2023-01-22T07:47:08.196Z,19.65
2023-01-22T07:49:34.370Z,20.38
2023-01-22T07:52:00.522Z,18.50
2023-01-22T07:54:26.646Z,19.58
2023-01-22T07:56:52.776Z,19.58
2023-01-22T07:59:18.896Z,18.58
2023-01-22T08:01:45.024Z,18.83
2023-01-22T08:04:11.170Z,22.13
2023-01-22T08:06:37.318Z,21.23
2023-01-22T08:09:03.437Z,22.67
2023-01-22T08:11:29.593Z,22.88
2023-01-22T08:13:55.713Z,18.73
2023-01-22T08:16:21.875Z,20.05
2023-01-22T08:18:48.160Z,19.83
2023-01-22T08:21:14.295Z,18.45
2023-01-22T08:23:40.419Z,18.63
2023-01-22T08:26:06.651Z,22.38
2023-01-22T08:28:32.803Z,20.83
2023-01-22T08:30:58.969Z,23.48
2023-01-22T08:33:25.118Z,20.88
2023-01-22T08:35:51.240Z,19.63
2023-01-22T08:38:17.388Z,20.35
2023-01-22T08:40:43.517Z,20.63
2023-01-22T08:43:09.661Z,19.73
2023-01-22T08:45:35.797Z,20.23
2023-01-22T08:48:01.979Z,18.10
2023-01-22T08:50:28.089Z,19.60
2023-01-22T08:52:54.236Z,19.35
2023-01-22T08:55:20.371Z,19.50
2023-01-22T08:57:46.522Z,19.38
2023-01-22T09:00:12.675Z,19.23
2023-01-22T09:02:38.860Z,20.48
2023-01-22T09:05:05.099Z,19.77
2023-01-22T09:07:31.241Z,21.77
2023-01-22T09:09:58.437Z,16.48
2023-01-22T09:12:24.567Z,17.20
2023-01-22T09:14:50.674Z,17.38
2023-01-22T09:17:16.847Z,18.10
2023-01-22T09:19:43.123Z,16.92
2023-01-22T09:22:09.301Z,16.50
2023-01-22T09:24:35.613Z,23.77
2023-01-22T09:27:01.730Z,16.08
2023-01-22T09:29:27.847Z,18.52
2023-01-22T09:31:54.004Z,16.42
2023-01-22T09:34:20.135Z,17.90
2023-01-22T09:36:46.266Z,16.63
2023-01-22T09:39:12.407Z,18.33
2023-01-22T09:41:38.553Z,25.80
2023-01-22T09:44:04.686Z,19.35
2023-01-22T09:46:30.819Z,21.23
2023-01-22T09:48:56.920Z,20.33
2023-01-22T09:51:23.145Z,22.35
2023-01-22T09:53:49.252Z,22.23
2023-01-22T09:56:15.402Z,24.17
2023-01-22T09:58:41.511Z,21.75
2023-01-22T10:01:07.673Z,24.45
2023-01-22T10:03:33.797Z,23.25
2023-01-22T10:05:59.926Z,22.85
2023-01-22T10:08:26.028Z,22.52
2023-01-22T10:10:52.176Z,26.58
2023-01-22T10:13:18.313Z,23.73
2023-01-22T10:15:44.430Z,23.80
2023-01-22T10:18:10.539Z,21.42
2023-01-22T10:20:36.670Z,18.35
2023-01-22T10:23:02.774Z,25.85
2023-01-22T10:25:28.877Z,19.88
2023-01-22T10:27:55.052Z,25.08
2023-01-22T10:30:21.425Z,22.00
2023-01-22T10:32:47.642Z,21.42
2023-01-22T10:35:13.746Z,19.30
2023-01-22T10:37:39.903Z,18.95
2023-01-22T10:40:06.081Z,18.38
2023-01-22T10:42:32.208Z,21.25
2023-01-22T10:44:58.363Z,19.80
2023-01-22T10:47:24.596Z,19.85
2023-01-22T10:49:50.730Z,20.02
2023-01-22T10:52:16.924Z,16.58
2023-01-22T10:54:43.079Z,15.82
2023-01-22T10:57:09.273Z,15.30
2023-01-22T10:59:35.506Z,13.65
2023-01-22T11:02:01.658Z,13.10
2023-01-22T11:04:27.800Z,15.38
2023-01-22T11:06:53.947Z,15.40
2023-01-22T11:09:20.109Z,23.88
2023-01-22T11:11:46.307Z,15.50
2023-01-22T11:14:12.415Z,15.30
2023-01-22T11:16:38.559Z,14.88
2023-01-22T11:19:04.683Z,16.45
2023-01-22T11:21:30.832Z,16.02
2023-01-22T11:23:56.984Z,15.40
2023-01-22T11:26:23.116Z,17.20
2023-01-22T11:28:49.245Z,15.70
2023-01-22T11:31:15.429Z,16.90
2023-01-22T11:33:41.629Z,14.52
2023-01-22T11:36:09.703Z,15.48
2023-01-22T11:38:36.011Z,16.90
2023-01-22T11:41:02.123Z,18.77
2023-01-22T11:43:28.279Z,16.25
2023-01-22T11:45:54.479Z,19.63
2023-01-22T11:48:20.751Z,18.45
2023-01-22T11:50:46.896Z,16.35
2023-01-22T11:53:13.053Z,14.45
2023-01-22T11:55:39.232Z,16.50
2023-01-22T11:58:05.363Z,14.20
2023-01-22T12:00:31.488Z,16.23
2023-01-22T12:02:57.706Z,13.80
2023-01-22T12:05:23.945Z,15.30
2023-01-22T12:07:50.066Z,16.30
2023-01-22T12:10:16.375Z,14.52
2023-01-22T12:12:42.675Z,12.48
2023-01-22T12:15:08.978Z,12.35
2023-01-22T12:17:35.113Z,11.38
2023-01-22T12:20:01.257Z,12.75
2023-01-22T12:22:27.389Z,10.48
2023-01-22T12:24:53.535Z,9.95
2023-01-22T12:27:19.685Z,12.68
2023-01-22T12:29:45.805Z,12.93
2023-01-22T12:32:11.933Z,10.48
2023-01-22T12:34:38.082Z,9.32
2023-01-22T12:37:04.214Z,14.52
2023-01-22T12:39:30.341Z,11.52
2023-01-22T12:41:56.516Z,9.18
2023-01-22T12:44:22.626Z,11.05
2023-01-22T12:46:48.788Z,11.13
2023-01-22T12:49:14.934Z,9.80
2023-01-22T12:51:41.082Z,8.65
2023-01-22T12:54:07.278Z,9.75
2023-01-22T12:56:33.419Z,10.90
2023-01-22T12:58:59.553Z,11.18
2023-01-22T13:01:25.715Z,10.80
2023-01-22T13:03:51.847Z,10.23
2023-01-22T13:06:17.976Z,8.75
2023-01-22T13:08:44.127Z,14.13
2023-01-22T13:11:10.318Z,10.40
2023-01-22T13:13:36.444Z,9.27
2023-01-22T13:16:02.637Z,9.55
2023-01-22T13:18:28.821Z,10.35
2023-01-22T13:20:55.011Z,12.80
2023-01-22T13:23:21.752Z,12.00
2023-01-22T13:25:47.935Z,13.00
2023-01-22T13:28:14.082Z,17.08
2023-01-22T13:30:40.243Z,13.23
2023-01-22T13:33:06.373Z,12.07
2023-01-22T13:35:32.498Z,13.13
2023-01-22T13:37:58.633Z,11.60
2023-01-22T13:40:24.757Z,10.35
2023-01-22T13:42:50.906Z,11.82
2023-01-22T13:45:17.002Z,15.73
2023-01-22T13:47:43.143Z,12.55
2023-01-22T13:50:09.263Z,13.55
2023-01-22T13:52:35.426Z,9.52
2023-01-22T13:55:01.548Z,10.40
2023-01-22T13:57:27.683Z,10.75
2023-01-22T13:59:53.821Z,15.07
2023-01-22T14:02:20.064Z,10.23
2023-01-22T14:04:46.293Z,11.88
2023-01-22T14:07:12.438Z,11.45
2023-01-22T14:09:38.554Z,10.75
2023-01-22T14:12:04.705Z,11.80
2023-01-22T14:14:30.807Z,14.15
2023-01-22T14:16:56.906Z,12.75
2023-01-22T14:19:23.055Z,10.30
2023-01-22T14:21:49.163Z,11.95
2023-01-22T14:24:15.320Z,11.85
2023-01-22T14:26:41.428Z,10.75
2023-01-22T14:29:07.605Z,12.02
2023-01-22T14:31:33.764Z,11.95
2023-01-22T14:33:59.969Z,12.32
2023-01-22T14:36:26.133Z,14.35
2023-01-22T14:38:52.397Z,13.23
2023-01-22T14:41:18.601Z,12.70
2023-01-22T14:43:44.891Z,15.88
2023-01-22T14:46:11.081Z,12.88
2023-01-22T14:48:37.249Z,13.45
2023-01-22T14:51:03.382Z,14.35
2023-01-22T14:53:29.539Z,15.63
2023-01-22T14:55:55.648Z,11.20
2023-01-22T14:58:21.774Z,13.63
2023-01-22T15:00:47.915Z,13.95
2023-01-22T15:03:14.100Z,13.23
2023-01-22T15:05:40.214Z,11.80
2023-01-22T15:08:06.359Z,13.38
2023-01-22T15:10:32.529Z,11.80
2023-01-22T15:12:58.743Z,11.60
2023-01-22T15:15:24.886Z,10.48
2023-01-22T15:17:51.027Z,14.70
2023-01-22T15:20:17.525Z,10.63
2023-01-22T15:22:43.802Z,12.43
2023-01-22T15:25:09.926Z,13.68
2023-01-22T15:27:36.036Z,15.68
2023-01-22T15:30:02.209Z,13.40
2023-01-22T15:32:28.367Z,15.30
2023-01-22T15:34:54.521Z,13.45
2023-01-22T15:37:20.677Z,14.38
2023-01-22T15:39:46.826Z,14.02
2023-01-22T15:42:12.940Z,15.32
2023-01-22T15:44:39.076Z,15.10
2023-01-22T15:47:05.271Z,15.35
2023-01-22T15:49:31.371Z,12.35
2023-01-22T15:51:57.503Z,12.52
2023-01-22T15:54:25.740Z,17.33
2023-01-22T15:56:52.012Z,14.80
2023-01-22T15:59:18.129Z,18.38
2023-01-22T16:01:44.280Z,17.02
2023-01-22T16:04:10.404Z,14.88
2023-01-22T16:06:36.524Z,14.95
2023-01-22T16:09:02.641Z,11.93
2023-01-22T16:11:28.773Z,13.00
2023-01-22T16:13:54.902Z,16.10
2023-01-22T16:16:21.077Z,14.65
2023-01-22T16:18:47.258Z,14.73
2023-01-22T16:21:13.412Z,15.48
2023-01-22T16:23:39.526Z,14.57
2023-01-22T16:26:05.668Z,15.95
2023-01-22T16:28:31.838Z,13.70
2023-01-22T16:30:58.139Z,15.57
2023-01-22T16:33:24.305Z,22.08
2023-01-22T16:35:50.591Z,19.02
2023-01-22T16:38:16.702Z,18.30
2023-01-22T16:40:42.819Z,17.23
2023-01-22T16:43:08.955Z,16.98
2023-01-22T16:45:35.120Z,18.83
2023-01-22T16:48:01.261Z,19.23
2023-01-22T16:50:27.383Z,18.65
2023-01-22T16:52:53.535Z,22.30
2023-01-22T16:55:19.645Z,18.92
2023-01-22T16:57:45.784Z,20.20
2023-01-22T17:00:11.895Z,19.02
2023-01-22T17:02:38.103Z,21.17
2023-01-22T17:05:04.238Z,20.33
2023-01-22T17:07:33.943Z,17.83
2023-01-22T17:10:00.580Z,18.75
2023-01-22T17:12:26.876Z,17.70
2023-01-22T17:14:53.007Z,16.08
2023-01-22T17:17:19.185Z,17.10
2023-01-22T17:19:45.317Z,18.63
2023-01-22T17:22:11.500Z,19.00
2023-01-22T17:24:37.767Z,16.95
2023-01-22T17:27:03.903Z,18.40
2023-01-22T17:29:30.052Z,20.83
2023-01-22T17:31:56.195Z,17.90
2023-01-22T17:34:22.372Z,14.95
2023-01-22T17:36:48.482Z,20.35
2023-01-22T17:39:14.608Z,16.42
2023-01-22T17:41:40.721Z,22.30
2023-01-22T17:44:06.857Z,18.67
2023-01-22T17:46:33.047Z,19.27
2023-01-22T17:48:59.213Z,21.05
2023-01-22T17:51:25.390Z,19.38
2023-01-22T17:53:51.592Z,19.23
2023-01-22T17:56:17.713Z,23.85
2023-01-22T17:58:43.890Z,19.20
2023-01-22T18:01:10.049Z,23.27
2023-01-22T18:03:36.202Z,20.50
2023-01-22T18:06:02.310Z,21.50
2023-01-22T18:08:28.445Z,20.52
2023-01-22T18:10:54.571Z,23.67
2023-01-22T18:13:20.685Z,21.55
2023-01-22T18:15:46.819Z,22.05
2023-01-22T18:18:12.944Z,22.40
2023-01-22T18:20:39.062Z,22.77
2023-01-22T18:23:05.193Z,22.67
2023-01-22T18:25:31.375Z,24.63
2023-01-22T18:27:57.487Z,26.05
2023-01-22T18:30:23.647Z,23.17
2023-01-22T18:32:49.872Z,20.88
2023-01-22T18:35:16.153Z,26.63
2023-01-22T18:37:42.323Z,23.23
2023-01-22T18:40:08.444Z,23.45
2023-01-22T18:42:34.583Z,21.67
2023-01-22T18:45:00.722Z,26.85
2023-01-22T18:47:26.864Z,24.65
2023-01-22T18:49:52.990Z,25.10
2023-01-22T18:52:19.120Z,25.38
2023-01-22T18:54:45.254Z,25.75
2023-01-22T18:57:11.358Z,21.90
2023-01-22T18:59:37.504Z,25.67
2023-01-22T19:02:03.655Z,28.17
2023-01-22T19:04:29.812Z,28.33
2023-01-22T19:06:55.958Z,30.42
2023-01-22T19:09:22.072Z,30.08
2023-01-22T19:11:48.228Z,28.90
2023-01-22T19:14:14.367Z,26.80
2023-01-22T19:16:40.497Z,27.38
2023-01-22T19:19:06.594Z,31.85
2023-01-22T19:21:32.730Z,30.40
2023-01-22T19:23:58.850Z,30.58
2023-01-22T19:26:24.984Z,28.83
2023-01-22T19:28:51.103Z,29.20
2023-01-22T19:31:17.379Z,27.15
2023-01-22T19:33:43.600Z,28.08
2023-01-22T19:36:09.721Z,27.63
2023-01-22T19:38:35.835Z,26.55
2023-01-22T19:41:01.958Z,30.75
2023-01-22T19:43:28.062Z,29.52
2023-01-22T19:45:54.185Z,30.38
2023-01-22T19:48:20.290Z,26.20
2023-01-22T19:50:46.427Z,29.17
2023-01-22T19:53:12.540Z,27.60
2023-01-22T19:55:38.678Z,33.08
2023-01-22T19:58:04.820Z,30.85
2023-01-22T20:00:30.985Z,31.70
2023-01-22T20:02:57.122Z,28.58
2023-01-22T20:05:23.247Z,35.05
2023-01-22T20:07:49.376Z,33.60
2023-01-22T20:10:15.505Z,30.73
2023-01-22T20:12:41.626Z,31.30
2023-01-22T20:15:07.740Z,30.58
2023-01-22T20:17:33.873Z,31.65
2023-01-22T20:20:00.019Z,34.72
2023-01-22T20:22:26.161Z,30.83
2023-01-22T20:24:52.284Z,31.08
2023-01-22T20:27:18.423Z,29.52
2023-01-22T20:29:44.523Z,34.22
2023-01-22T20:32:10.655Z,33.90
2023-01-22T20:34:36.792Z,34.42
2023-01-22T20:37:03.977Z,31.52
2023-01-22T20:39:30.099Z,35.38
2023-01-22T20:41:56.229Z,33.80
2023-01-22T20:44:22.605Z,31.83
2023-01-22T20:46:48.735Z,33.53
2023-01-22T20:49:14.871Z,35.83
2023-01-22T20:51:40.988Z,34.78
2023-01-22T20:54:07.123Z,32.78
2023-01-22T20:56:33.254Z,31.38
2023-01-22T20:58:59.398Z,35.72
2023-01-22T21:01:25.508Z,31.58
2023-01-22T21:03:51.663Z,36.17
2023-01-22T21:06:17.778Z,29.27
2023-01-22T21:08:43.932Z,33.35
2023-01-22T21:11:10.208Z,32.35
2023-01-22T21:13:36.346Z,28.67
2023-01-22T21:16:02.496Z,31.38
2023-01-22T21:18:28.654Z,32.20
2023-01-22T21:20:54.786Z,33.45
2023-01-22T21:23:20.921Z,29.42
2023-01-22T21:25:47.045Z,29.75
2023-01-22T21:28:13.165Z,31.98
2023-01-22T21:30:39.360Z,30.80
2023-01-22T21:33:05.520Z,31.50
2023-01-22T21:35:31.670Z,32.15
2023-01-22T21:37:57.837Z,31.08
2023-01-22T21:40:23.960Z,34.30
2023-01-22T21:42:50.073Z,33.78
2023-01-22T21:45:16.229Z,33.95
2023-01-22T21:47:42.335Z,33.60
2023-01-22T21:50:08.469Z,37.80
2023-01-22T21:52:34.580Z,36.25
2023-01-22T21:55:00.730Z,34.90
2023-01-22T21:57:26.877Z,34.78
2023-01-22T21:59:53.050Z,36.33
2023-01-22T22:02:19.231Z,34.10
2023-01-22T22:04:45.376Z,36.08
2023-01-22T22:07:11.492Z,35.85
2023-01-22T22:09:37.625Z,35.40
2023-01-22T22:12:03.759Z,35.20
2023-01-22T22:14:29.895Z,36.53
2023-01-22T22:16:56.127Z,37.70
2023-01-22T22:19:22.294Z,36.88
2023-01-22T22:21:48.412Z,41.03
2023-01-22T22:24:14.574Z,37.65
2023-01-22T22:26:40.708Z,35.67
2023-01-22T22:29:06.864Z,34.67
2023-01-22T22:31:33.051Z,37.05
2023-01-22T22:33:59.188Z,35.33
2023-01-22T22:36:25.321Z,33.33
2023-01-22T22:38:51.425Z,33.25
2023-01-22T22:41:17.610Z,35.42
2023-01-22T22:43:43.724Z,36.55
2023-01-22T22:46:09.931Z,37.55
2023-01-22T22:48:36.099Z,35.78
2023-01-22T22:51:02.281Z,38.83
2023-01-22T22:53:28.432Z,37.25
2023-01-22T22:55:54.557Z,36.65
2023-01-22T22:58:20.711Z,34.33
2023-01-22T23:00:46.872Z,33.60
2023-01-22T23:03:13.115Z,39.03
2023-01-22T23:05:39.317Z,34.50
2023-01-22T23:08:05.467Z,33.78
2023-01-22T23:10:31.598Z,33.65
2023-01-22T23:12:57.727Z,33.95
2023-01-22T23:15:23.866Z,31.35
2023-01-22T23:17:50.033Z,34.78
2023-01-22T23:20:16.139Z,33.78
2023-01-22T23:22:42.278Z,33.58
2023-01-22T23:25:08.406Z,39.55
2023-01-22T23:27:34.565Z,38.28
2023-01-22T23:30:00.664Z,44.75
2023-01-22T23:32:26.915Z,26.90
2023-01-22T23:34:53.073Z,25.98
2023-01-22T23:37:19.205Z,32.70
2023-01-22T23:39:45.351Z,28.88
2023-01-22T23:42:11.529Z,28.63
2023-01-22T23:44:37.683Z,30.25
2023-01-22T23:47:03.867Z,26.50
2023-01-22T23:49:29.975Z,27.17
2023-01-22T23:51:56.139Z,27.17
2023-01-22T23:54:22.333Z,27.58
2023-01-22T23:56:48.571Z,28.15
2023-01-22T23:59:14.743Z,26.35
